sensor_id;sensor_type;location;lat;lon;timestamp;P1;durP1;ratioP1;P2;durP2;ratioP2
70150;SDS011;57517;43.562;19.540;2023-03-04T00:01:42;31.40;;;20.27;;
70150;SDS011;57517;43.562;19.540;2023-03-04T00:04:08;32.90;;;22.02;;
70150;SDS011;57517;43.562;19.540;2023-03-04T00:06:33;37.10;;;25.55;;
70150;SDS011;57517;43.562;19.540;2023-03-04T00:08:59;34.30;;;22.95;;
70150;SDS011;57517;43.562;19.540;2023-03-04T00:11:25;27.70;;;20.05;;
70150;SDS011;57517;43.562;19.540;2023-03-04T00:13:51;28.27;;;19.90;;
70150;SDS011;57517;43.562;19.540;2023-03-04T00:16:16;32.03;;;21.27;;
70150;SDS011;57517;43.562;19.540;2023-03-04T00:18:42;25.15;;;16.75;;
70150;SDS011;57517;43.562;19.540;2023-03-04T00:21:08;31.95;;;20.80;;
70150;SDS011;57517;43.562;19.540;2023-03-04T00:23:33;35.30;;;24.10;;
70150;SDS011;57517;43.562;19.540;2023-03-04T00:25:59;32.58;;;22.05;;
70150;SDS011;57517;43.562;19.540;2023-03-04T00:28:25;33.72;;;23.13;;
70150;SDS011;57517;43.562;19.540;2023-03-04T00:30:51;28.92;;;20.00;;
70150;SDS011;57517;43.562;19.540;2023-03-04T00:33:17;29.30;;;18.92;;
70150;SDS011;57517;43.562;19.540;2023-03-04T00:35:43;21.38;;;14.30;;
70150;SDS011;57517;43.562;19.540;2023-03-04T00:38:09;23.77;;;17.42;;
70150;SDS011;57517;43.562;19.540;2023-03-04T00:40:34;24.83;;;17.50;;
70150;SDS011;57517;43.562;19.540;2023-03-04T00:43:01;27.95;;;19.50;;
70150;SDS011;57517;43.562;19.540;2023-03-04T00:45:27;32.15;;;20.98;;
70150;SDS011;57517;43.562;19.540;2023-03-04T00:47:52;32.05;;;22.40;;
70150;SDS011;57517;43.562;19.540;2023-03-04T00:50:18;31.15;;;21.40;;
70150;SDS011;57517;43.562;19.540;2023-03-04T00:52:44;30.50;;;21.77;;
70150;SDS011;57517;43.562;19.540;2023-03-04T00:55:10;29.92;;;22.27;;
70150;SDS011;57517;43.562;19.540;2023-03-04T00:57:35;32.05;;;22.35;;
70150;SDS011;57517;43.562;19.540;2023-03-04T01:00:01;29.05;;;19.90;;
70150;SDS011;57517;43.562;19.540;2023-03-04T01:02:27;22.90;;;17.13;;
70150;SDS011;57517;43.562;19.540;2023-03-04T01:04:53;23.73;;;16.60;;
70150;SDS011;57517;43.562;19.540;2023-03-04T01:07:19;24.30;;;16.85;;
70150;SDS011;57517;43.562;19.540;2023-03-04T01:09:44;24.38;;;16.05;;
70150;SDS011;57517;43.562;19.540;2023-03-04T01:12:10;28.08;;;18.10;;
70150;SDS011;57517;43.562;19.540;2023-03-04T01:14:36;26.52;;;19.42;;
70150;SDS011;57517;43.562;19.540;2023-03-04T01:17:02;33.97;;;23.08;;
70150;SDS011;57517;43.562;19.540;2023-03-04T01:19:28;36.33;;;24.60;;
70150;SDS011;57517;43.562;19.540;2023-03-04T01:21:53;27.92;;;19.52;;
70150;SDS011;57517;43.562;19.540;2023-03-04T01:24:19;25.80;;;16.13;;
70150;SDS011;57517;43.562;19.540;2023-03-04T01:26:45;21.40;;;14.90;;
70150;SDS011;57517;43.562;19.540;2023-03-04T01:29:10;19.02;;;14.13;;
70150;SDS011;57517;43.562;19.540;2023-03-04T01:31:36;20.35;;;13.32;;
70150;SDS011;57517;43.562;19.540;2023-03-04T01:34:02;21.98;;;14.18;;
70150;SDS011;57517;43.562;19.540;2023-03-04T01:36:28;21.88;;;14.35;;
70150;SDS011;57517;43.562;19.540;2023-03-04T01:38:53;23.77;;;15.32;;
70150;SDS011;57517;43.562;19.540;2023-03-04T01:41:22;18.00;;;12.63;;
70150;SDS011;57517;43.562;19.540;2023-03-04T01:43:50;18.80;;;12.70;;
70150;SDS011;57517;43.562;19.540;2023-03-04T01:46:16;22.10;;;13.52;;
70150;SDS011;57517;43.562;19.540;2023-03-04T01:48:41;23.45;;;14.27;;
70150;SDS011;57517;43.562;19.540;2023-03-04T01:51:12;22.90;;;15.73;;
70150;SDS011;57517;43.562;19.540;2023-03-04T01:53:40;24.80;;;15.73;;
70150;SDS011;57517;43.562;19.540;2023-03-04T01:56:12;24.60;;;16.48;;
70150;SDS011;57517;43.562;19.540;2023-03-04T02:01:56;28.88;;;20.98;;
70150;SDS011;57517;43.562;19.540;2023-03-04T02:04:27;34.47;;;23.55;;
70150;SDS011;57517;43.562;19.540;2023-03-04T02:06:56;35.38;;;24.95;;
70150;SDS011;57517;43.562;19.540;2023-03-04T02:09:23;28.63;;;19.95;;
70150;SDS011;57517;43.562;19.540;2023-03-04T02:11:49;25.67;;;15.93;;
70150;SDS011;57517;43.562;19.540;2023-03-04T02:14:16;23.33;;;15.90;;
70150;SDS011;57517;43.562;19.540;2023-03-04T02:16:43;32.85;;;19.70;;
70150;SDS011;57517;43.562;19.540;2023-03-04T02:19:17;26.30;;;18.58;;
70150;SDS011;57517;43.562;19.540;2023-03-04T02:21:50;26.77;;;17.95;;
70150;SDS011;57517;43.562;19.540;2023-03-04T02:24:23;29.42;;;19.73;;
70150;SDS011;57517;43.562;19.540;2023-03-04T02:26:50;26.95;;;18.38;;
70150;SDS011;57517;43.562;19.540;2023-03-04T02:29:16;25.63;;;15.88;;
70150;SDS011;57517;43.562;19.540;2023-03-04T02:31:46;30.33;;;19.05;;
70150;SDS011;57517;43.562;19.540;2023-03-04T02:34:21;25.77;;;16.80;;
70150;SDS011;57517;43.562;19.540;2023-03-04T02:36:58;26.52;;;17.15;;
70150;SDS011;57517;43.562;19.540;2023-03-04T02:41:53;29.00;;;17.67;;
70150;SDS011;57517;43.562;19.540;2023-03-04T02:44:20;27.17;;;17.02;;
70150;SDS011;57517;43.562;19.540;2023-03-04T02:46:48;22.90;;;15.88;;
70150;SDS011;57517;43.562;19.540;2023-03-04T02:49:14;25.13;;;16.52;;
70150;SDS011;57517;43.562;19.540;2023-03-04T02:51:41;26.20;;;16.95;;
70150;SDS011;57517;43.562;19.540;2023-03-04T02:54:14;26.33;;;17.45;;
70150;SDS011;57517;43.562;19.540;2023-03-04T02:56:45;27.02;;;17.20;;
70150;SDS011;57517;43.562;19.540;2023-03-04T02:59:11;25.00;;;17.77;;
70150;SDS011;57517;43.562;19.540;2023-03-04T03:01:37;29.83;;;20.25;;
70150;SDS011;57517;43.562;19.540;2023-03-04T03:04:02;31.20;;;22.30;;
70150;SDS011;57517;43.562;19.540;2023-03-04T03:06:28;27.98;;;20.17;;
70150;SDS011;57517;43.562;19.540;2023-03-04T03:08:54;28.70;;;17.95;;
70150;SDS011;57517;43.562;19.540;2023-03-04T03:11:20;30.83;;;18.60;;
70150;SDS011;57517;43.562;19.540;2023-03-04T03:13:45;29.83;;;19.30;;
70150;SDS011;57517;43.562;19.540;2023-03-04T03:16:11;32.08;;;19.20;;
70150;SDS011;57517;43.562;19.540;2023-03-04T03:18:37;26.83;;;19.95;;
70150;SDS011;57517;43.562;19.540;2023-03-04T03:21:02;27.63;;;18.48;;
70150;SDS011;57517;43.562;19.540;2023-03-04T03:23:28;30.48;;;18.95;;
70150;SDS011;57517;43.562;19.540;2023-03-04T03:25:54;27.50;;;18.10;;
70150;SDS011;57517;43.562;19.540;2023-03-04T03:28:20;27.17;;;18.25;;
70150;SDS011;57517;43.562;19.540;2023-03-04T03:30:45;34.97;;;24.15;;
70150;SDS011;57517;43.562;19.540;2023-03-04T03:33:11;33.30;;;21.75;;
70150;SDS011;57517;43.562;19.540;2023-03-04T03:35:37;31.73;;;19.00;;
70150;SDS011;57517;43.562;19.540;2023-03-04T03:38:02;31.55;;;19.98;;
70150;SDS011;57517;43.562;19.540;2023-03-04T03:40:28;26.15;;;17.67;;
70150;SDS011;57517;43.562;19.540;2023-03-04T03:42:54;29.85;;;18.60;;
70150;SDS011;57517;43.562;19.540;2023-03-04T03:45:19;24.90;;;16.92;;
70150;SDS011;57517;43.562;19.540;2023-03-04T03:47:45;27.67;;;16.95;;
70150;SDS011;57517;43.562;19.540;2023-03-04T03:50:11;28.15;;;18.88;;
70150;SDS011;57517;43.562;19.540;2023-03-04T03:52:37;25.60;;;17.50;;
70150;SDS011;57517;43.562;19.540;2023-03-04T03:55:02;23.75;;;15.77;;
70150;SDS011;57517;43.562;19.540;2023-03-04T03:57:28;21.15;;;14.90;;
70150;SDS011;57517;43.562;19.540;2023-03-04T03:59:54;20.75;;;14.57;;
70150;SDS011;57517;43.562;19.540;2023-03-04T04:02:20;22.75;;;15.13;;
70150;SDS011;57517;43.562;19.540;2023-03-04T04:04:46;20.48;;;13.48;;
70150;SDS011;57517;43.562;19.540;2023-03-04T04:07:12;22.30;;;16.55;;
70150;SDS011;57517;43.562;19.540;2023-03-04T04:09:38;27.48;;;19.02;;
70150;SDS011;57517;43.562;19.540;2023-03-04T04:12:04;25.50;;;19.88;;
70150;SDS011;57517;43.562;19.540;2023-03-04T04:14:31;25.80;;;15.82;;
70150;SDS011;57517;43.562;19.540;2023-03-04T04:16:57;30.80;;;20.00;;
70150;SDS011;57517;43.562;19.540;2023-03-04T04:19:22;32.85;;;20.60;;
70150;SDS011;57517;43.562;19.540;2023-03-04T04:21:48;26.33;;;16.60;;
70150;SDS011;57517;43.562;19.540;2023-03-04T04:24:14;20.05;;;15.45;;
70150;SDS011;57517;43.562;19.540;2023-03-04T04:26:40;20.00;;;14.32;;
70150;SDS011;57517;43.562;19.540;2023-03-04T04:29:06;29.52;;;16.48;;
70150;SDS011;57517;43.562;19.540;2023-03-04T04:31:32;27.65;;;16.45;;
70150;SDS011;57517;43.562;19.540;2023-03-04T04:33:58;21.83;;;15.35;;
70150;SDS011;57517;43.562;19.540;2023-03-04T04:36:24;23.25;;;15.32;;
70150;SDS011;57517;43.562;19.540;2023-03-04T04:38:51;23.15;;;15.20;;
70150;SDS011;57517;43.562;19.540;2023-03-04T04:41:18;17.45;;;12.23;;
70150;SDS011;57517;43.562;19.540;2023-03-04T04:43:46;23.85;;;14.55;;
70150;SDS011;57517;43.562;19.540;2023-03-04T04:46:12;24.60;;;15.50;;
70150;SDS011;57517;43.562;19.540;2023-03-04T04:48:38;25.83;;;16.65;;
70150;SDS011;57517;43.562;19.540;2023-03-04T04:51:04;24.15;;;15.50;;
70150;SDS011;57517;43.562;19.540;2023-03-04T04:53:30;24.05;;;16.65;;
70150;SDS011;57517;43.562;19.540;2023-03-04T04:55:55;21.48;;;15.57;;
70150;SDS011;57517;43.562;19.540;2023-03-04T04:58:21;27.88;;;17.90;;
70150;SDS011;57517;43.562;19.540;2023-03-04T05:00:47;27.17;;;17.15;;
70150;SDS011;57517;43.562;19.540;2023-03-04T05:03:12;27.02;;;18.48;;
70150;SDS011;57517;43.562;19.540;2023-03-04T05:05:38;37.90;;;26.52;;
70150;SDS011;57517;43.562;19.540;2023-03-04T05:08:04;39.92;;;27.33;;
70150;SDS011;57517;43.562;19.540;2023-03-04T05:10:30;29.90;;;22.23;;
70150;SDS011;57517;43.562;19.540;2023-03-04T05:12:56;30.88;;;21.63;;
70150;SDS011;57517;43.562;19.540;2023-03-04T05:15:21;30.58;;;20.83;;
70150;SDS011;57517;43.562;19.540;2023-03-04T05:17:47;28.15;;;20.67;;
70150;SDS011;57517;43.562;19.540;2023-03-04T05:20:13;30.52;;;20.10;;
70150;SDS011;57517;43.562;19.540;2023-03-04T05:22:38;26.17;;;18.02;;
70150;SDS011;57517;43.562;19.540;2023-03-04T05:25:04;29.25;;;18.83;;
70150;SDS011;57517;43.562;19.540;2023-03-04T05:27:31;25.67;;;18.00;;
70150;SDS011;57517;43.562;19.540;2023-03-04T05:29:57;31.30;;;20.45;;
70150;SDS011;57517;43.562;19.540;2023-03-04T05:32:26;31.13;;;19.67;;
70150;SDS011;57517;43.562;19.540;2023-03-04T05:34:52;31.90;;;21.20;;
70150;SDS011;57517;43.562;19.540;2023-03-04T05:37:18;32.00;;;22.67;;
70150;SDS011;57517;43.562;19.540;2023-03-04T05:39:43;28.67;;;21.80;;
70150;SDS011;57517;43.562;19.540;2023-03-04T05:42:09;32.78;;;23.23;;
70150;SDS011;57517;43.562;19.540;2023-03-04T05:44:35;30.63;;;22.67;;
70150;SDS011;57517;43.562;19.540;2023-03-04T05:47:00;31.77;;;21.65;;
70150;SDS011;57517;43.562;19.540;2023-03-04T05:49:26;37.05;;;28.83;;
70150;SDS011;57517;43.562;19.540;2023-03-04T05:51:52;33.20;;;22.80;;
70150;SDS011;57517;43.562;19.540;2023-03-04T05:54:17;31.95;;;23.55;;
70150;SDS011;57517;43.562;19.540;2023-03-04T05:56:43;32.05;;;24.25;;
70150;SDS011;57517;43.562;19.540;2023-03-04T05:59:09;37.65;;;28.70;;
70150;SDS011;57517;43.562;19.540;2023-03-04T06:01:35;35.08;;;24.33;;
70150;SDS011;57517;43.562;19.540;2023-03-04T06:04:00;49.53;;;23.50;;
70150;SDS011;57517;43.562;19.540;2023-03-04T06:06:26;33.22;;;23.65;;
70150;SDS011;57517;43.562;19.540;2023-03-04T06:08:52;34.03;;;24.10;;
70150;SDS011;57517;43.562;19.540;2023-03-04T06:11:17;36.60;;;27.02;;
70150;SDS011;57517;43.562;19.540;2023-03-04T06:13:43;35.92;;;26.92;;
70150;SDS011;57517;43.562;19.540;2023-03-04T06:16:09;41.63;;;29.73;;
70150;SDS011;57517;43.562;19.540;2023-03-04T06:18:34;38.03;;;28.08;;
70150;SDS011;57517;43.562;19.540;2023-03-04T06:21:01;39.25;;;26.40;;
70150;SDS011;57517;43.562;19.540;2023-03-04T06:23:27;34.28;;;24.63;;
70150;SDS011;57517;43.562;19.540;2023-03-04T06:25:54;40.65;;;28.55;;
70150;SDS011;57517;43.562;19.540;2023-03-04T06:28:22;43.50;;;30.52;;
70150;SDS011;57517;43.562;19.540;2023-03-04T06:30:50;41.75;;;28.23;;
70150;SDS011;57517;43.562;19.540;2023-03-04T06:33:17;41.83;;;29.70;;
70150;SDS011;57517;43.562;19.540;2023-03-04T06:35:43;38.40;;;27.33;;
70150;SDS011;57517;43.562;19.540;2023-03-04T06:38:08;40.95;;;29.05;;
70150;SDS011;57517;43.562;19.540;2023-03-04T06:40:34;51.63;;;40.20;;
70150;SDS011;57517;43.562;19.540;2023-03-04T06:43:00;51.15;;;39.88;;
70150;SDS011;57517;43.562;19.540;2023-03-04T06:45:26;45.58;;;33.25;;
70150;SDS011;57517;43.562;19.540;2023-03-04T06:47:51;47.80;;;34.53;;
70150;SDS011;57517;43.562;19.540;2023-03-04T06:50:17;48.33;;;33.53;;
70150;SDS011;57517;43.562;19.540;2023-03-04T06:52:43;47.25;;;33.90;;
70150;SDS011;57517;43.562;19.540;2023-03-04T06:55:09;49.90;;;39.35;;
70150;SDS011;57517;43.562;19.540;2023-03-04T06:57:37;47.90;;;34.33;;
70150;SDS011;57517;43.562;19.540;2023-03-04T07:00:03;38.33;;;26.77;;
70150;SDS011;57517;43.562;19.540;2023-03-04T07:02:29;39.20;;;28.13;;
70150;SDS011;57517;43.562;19.540;2023-03-04T07:04:55;42.00;;;28.08;;
70150;SDS011;57517;43.562;19.540;2023-03-04T07:07:20;42.28;;;28.05;;
70150;SDS011;57517;43.562;19.540;2023-03-04T07:09:46;48.58;;;36.78;;
70150;SDS011;57517;43.562;19.540;2023-03-04T07:12:12;60.15;;;49.28;;
70150;SDS011;57517;43.562;19.540;2023-03-04T07:14:38;79.35;;;64.18;;
70150;SDS011;57517;43.562;19.540;2023-03-04T07:17:03;88.80;;;71.90;;
70150;SDS011;57517;43.562;19.540;2023-03-04T07:19:29;81.97;;;65.72;;
70150;SDS011;57517;43.562;19.540;2023-03-04T07:21:55;77.95;;;58.33;;
70150;SDS011;57517;43.562;19.540;2023-03-04T07:24:21;68.95;;;51.90;;
70150;SDS011;57517;43.562;19.540;2023-03-04T07:26:46;68.63;;;58.95;;
70150;SDS011;57517;43.562;19.540;2023-03-04T07:29:12;78.50;;;57.88;;
70150;SDS011;57517;43.562;19.540;2023-03-04T07:31:38;67.05;;;50.05;;
70150;SDS011;57517;43.562;19.540;2023-03-04T07:34:05;65.78;;;52.65;;
70150;SDS011;57517;43.562;19.540;2023-03-04T07:36:32;58.55;;;41.53;;
70150;SDS011;57517;43.562;19.540;2023-03-04T07:39:00;49.00;;;37.22;;
70150;SDS011;57517;43.562;19.540;2023-03-04T07:41:26;47.47;;;33.92;;
70150;SDS011;57517;43.562;19.540;2023-03-04T07:43:52;41.35;;;31.00;;
70150;SDS011;57517;43.562;19.540;2023-03-04T07:46:19;34.60;;;24.50;;
70150;SDS011;57517;43.562;19.540;2023-03-04T07:48:45;30.63;;;23.25;;
70150;SDS011;57517;43.562;19.540;2023-03-04T07:51:18;34.63;;;24.83;;
70150;SDS011;57517;43.562;19.540;2023-03-04T07:53:46;33.78;;;24.02;;
70150;SDS011;57517;43.562;19.540;2023-03-04T07:56:15;33.58;;;22.83;;
70150;SDS011;57517;43.562;19.540;2023-03-04T07:58:46;33.53;;;23.50;;
70150;SDS011;57517;43.562;19.540;2023-03-04T08:01:16;31.13;;;24.63;;
70150;SDS011;57517;43.562;19.540;2023-03-04T08:03:56;32.88;;;24.25;;
70150;SDS011;57517;43.562;19.540;2023-03-04T08:06:23;38.65;;;28.60;;
70150;SDS011;57517;43.562;19.540;2023-03-04T08:08:54;41.78;;;28.35;;
70150;SDS011;57517;43.562;19.540;2023-03-04T08:11:27;43.15;;;34.85;;
70150;SDS011;57517;43.562;19.540;2023-03-04T08:13:54;55.42;;;37.63;;
70150;SDS011;57517;43.562;19.540;2023-03-04T08:16:21;48.53;;;38.42;;
70150;SDS011;57517;43.562;19.540;2023-03-04T08:18:49;51.55;;;37.28;;
70150;SDS011;57517;43.562;19.540;2023-03-04T08:21:20;49.28;;;36.78;;
70150;SDS011;57517;43.562;19.540;2023-03-04T08:23:47;54.83;;;38.10;;
70150;SDS011;57517;43.562;19.540;2023-03-04T08:26:15;51.45;;;36.83;;
70150;SDS011;57517;43.562;19.540;2023-03-04T08:28:41;51.67;;;36.03;;
70150;SDS011;57517;43.562;19.540;2023-03-04T08:31:07;47.65;;;36.47;;
70150;SDS011;57517;43.562;19.540;2023-03-04T08:33:33;53.97;;;39.03;;
70150;SDS011;57517;43.562;19.540;2023-03-04T08:35:59;54.22;;;38.92;;
70150;SDS011;57517;43.562;19.540;2023-03-04T08:38:25;46.75;;;37.45;;
70150;SDS011;57517;43.562;19.540;2023-03-04T08:40:51;49.47;;;36.67;;
70150;SDS011;57517;43.562;19.540;2023-03-04T08:43:18;48.72;;;34.75;;
70150;SDS011;57517;43.562;19.540;2023-03-04T08:45:44;44.97;;;34.45;;
70150;SDS011;57517;43.562;19.540;2023-03-04T08:48:10;41.78;;;31.63;;
70150;SDS011;57517;43.562;19.540;2023-03-04T08:50:35;45.35;;;33.35;;
70150;SDS011;57517;43.562;19.540;2023-03-04T08:53:01;59.15;;;36.90;;
70150;SDS011;57517;43.562;19.540;2023-03-04T08:55:27;41.83;;;30.42;;
70150;SDS011;57517;43.562;19.540;2023-03-04T08:57:53;36.40;;;28.55;;
70150;SDS011;57517;43.562;19.540;2023-03-04T09:00:18;38.55;;;28.88;;
70150;SDS011;57517;43.562;19.540;2023-03-04T09:02:46;36.30;;;27.38;;
70150;SDS011;57517;43.562;19.540;2023-03-04T09:05:12;41.03;;;30.58;;
70150;SDS011;57517;43.562;19.540;2023-03-04T09:07:37;48.63;;;34.22;;
70150;SDS011;57517;43.562;19.540;2023-03-04T09:10:04;51.60;;;39.75;;
70150;SDS011;57517;43.562;19.540;2023-03-04T09:12:30;45.90;;;37.33;;
70150;SDS011;57517;43.562;19.540;2023-03-04T09:14:55;52.10;;;38.85;;
70150;SDS011;57517;43.562;19.540;2023-03-04T09:17:21;47.22;;;35.15;;
70150;SDS011;57517;43.562;19.540;2023-03-04T09:19:47;35.92;;;27.23;;
70150;SDS011;57517;43.562;19.540;2023-03-04T09:22:13;36.60;;;26.10;;
70150;SDS011;57517;43.562;19.540;2023-03-04T09:24:38;32.05;;;23.17;;
70150;SDS011;57517;43.562;19.540;2023-03-04T09:27:04;30.38;;;24.73;;
70150;SDS011;57517;43.562;19.540;2023-03-04T09:29:30;37.90;;;27.83;;
70150;SDS011;57517;43.562;19.540;2023-03-04T09:31:56;34.72;;;26.45;;
70150;SDS011;57517;43.562;19.540;2023-03-04T09:34:21;38.45;;;29.40;;
70150;SDS011;57517;43.562;19.540;2023-03-04T09:36:47;38.47;;;28.58;;
70150;SDS011;57517;43.562;19.540;2023-03-04T09:39:13;36.83;;;28.13;;
70150;SDS011;57517;43.562;19.540;2023-03-04T09:41:45;46.83;;;30.40;;
70150;SDS011;57517;43.562;19.540;2023-03-04T09:46:39;32.35;;;19.77;;
70150;SDS011;57517;43.562;19.540;2023-03-04T09:49:08;28.73;;;19.90;;
70150;SDS011;57517;43.562;19.540;2023-03-04T09:57:22;42.80;;;30.63;;
70150;SDS011;57517;43.562;19.540;2023-03-04T10:00:18;27.70;;;17.95;;
70150;SDS011;57517;43.562;19.540;2023-03-04T10:05:40;21.10;;;14.73;;
70150;SDS011;57517;43.562;19.540;2023-03-04T10:10:55;26.77;;;17.67;;
70150;SDS011;57517;43.562;19.540;2023-03-04T10:13:27;42.22;;;29.05;;
70150;SDS011;57517;43.562;19.540;2023-03-04T10:16:04;32.80;;;21.58;;
70150;SDS011;57517;43.562;19.540;2023-03-04T10:18:35;104.57;;;82.18;;
70150;SDS011;57517;43.562;19.540;2023-03-04T10:23:59;44.67;;;32.35;;
70150;SDS011;57517;43.562;19.540;2023-03-04T10:26:35;39.33;;;30.75;;
70150;SDS011;57517;43.562;19.540;2023-03-04T10:29:01;54.92;;;44.08;;
70150;SDS011;57517;43.562;19.540;2023-03-04T10:31:34;61.63;;;45.35;;
70150;SDS011;57517;43.562;19.540;2023-03-04T10:34:05;46.22;;;35.50;;
70150;SDS011;57517;43.562;19.540;2023-03-04T10:39:09;31.05;;;22.73;;
70150;SDS011;57517;43.562;19.540;2023-03-04T10:41:41;24.88;;;18.52;;
70150;SDS011;57517;43.562;19.540;2023-03-04T10:46:42;41.45;;;27.55;;
70150;SDS011;57517;43.562;19.540;2023-03-04T10:49:14;28.52;;;20.20;;
70150;SDS011;57517;43.562;19.540;2023-03-04T10:57:13;33.55;;;24.30;;
70150;SDS011;57517;43.562;19.540;2023-03-04T10:59:57;58.47;;;43.92;;
70150;SDS011;57517;43.562;19.540;2023-03-04T11:07:40;27.92;;;20.35;;
70150;SDS011;57517;43.562;19.540;2023-03-04T11:13:04;26.88;;;19.92;;
70150;SDS011;57517;43.562;19.540;2023-03-04T11:20:54;28.42;;;21.60;;
70150;SDS011;57517;43.562;19.540;2023-03-04T11:23:25;40.78;;;31.70;;
70150;SDS011;57517;43.562;19.540;2023-03-04T11:26:02;27.15;;;20.65;;
70150;SDS011;57517;43.562;19.540;2023-03-04T11:28:44;25.90;;;19.63;;
70150;SDS011;57517;43.562;19.540;2023-03-04T11:31:22;22.55;;;15.27;;
70150;SDS011;57517;43.562;19.540;2023-03-04T11:39:37;21.13;;;14.45;;
70150;SDS011;57517;43.562;19.540;2023-03-04T11:42:43;27.02;;;19.00;;
70150;SDS011;57517;43.562;19.540;2023-03-04T11:45:13;36.03;;;24.05;;
70150;SDS011;57517;43.562;19.540;2023-03-04T12:04:31;25.05;;;15.13;;
70150;SDS011;57517;43.562;19.540;2023-03-04T12:07:21;29.17;;;18.33;;
70150;SDS011;57517;43.562;19.540;2023-03-04T12:10:03;22.73;;;16.15;;
70150;SDS011;57517;43.562;19.540;2023-03-04T12:15:59;18.27;;;13.10;;
70150;SDS011;57517;43.562;19.540;2023-03-04T12:18:40;19.98;;;14.82;;
70150;SDS011;57517;43.562;19.540;2023-03-04T12:21:35;18.70;;;12.70;;
70150;SDS011;57517;43.562;19.540;2023-03-04T12:24:19;22.45;;;15.65;;
70150;SDS011;57517;43.562;19.540;2023-03-04T12:35:08;23.58;;;16.30;;
70150;SDS011;57517;43.562;19.540;2023-03-04T12:40:37;21.40;;;13.60;;
70150;SDS011;57517;43.562;19.540;2023-03-04T12:43:08;21.30;;;14.80;;
70150;SDS011;57517;43.562;19.540;2023-03-04T12:48:30;25.23;;;17.67;;
70150;SDS011;57517;43.562;19.540;2023-03-04T12:53:51;30.02;;;23.92;;
70150;SDS011;57517;43.562;19.540;2023-03-04T12:56:25;37.20;;;24.75;;
70150;SDS011;57517;43.562;19.540;2023-03-04T12:58:56;36.30;;;26.88;;
70150;SDS011;57517;43.562;19.540;2023-03-04T13:09:23;39.55;;;27.30;;
70150;SDS011;57517;43.562;19.540;2023-03-04T13:11:52;48.30;;;34.95;;
70150;SDS011;57517;43.562;19.540;2023-03-04T13:14:37;34.15;;;24.20;;
70150;SDS011;57517;43.562;19.540;2023-03-04T13:25:32;28.10;;;19.98;;
70150;SDS011;57517;43.562;19.540;2023-03-04T13:43:54;34.60;;;23.95;;
70150;SDS011;57517;43.562;19.540;2023-03-04T14:01:33;51.13;;;36.50;;
70150;SDS011;57517;43.562;19.540;2023-03-04T14:06:49;27.90;;;21.70;;
70150;SDS011;57517;43.562;19.540;2023-03-04T14:09:26;30.48;;;21.90;;
70150;SDS011;57517;43.562;19.540;2023-03-04T14:11:55;31.85;;;19.50;;
70150;SDS011;57517;43.562;19.540;2023-03-04T14:14:42;34.78;;;25.10;;
70150;SDS011;57517;43.562;19.540;2023-03-04T14:17:18;26.98;;;19.67;;
70150;SDS011;57517;43.562;19.540;2023-03-04T14:19:48;39.47;;;29.70;;
70150;SDS011;57517;43.562;19.540;2023-03-04T14:22:21;30.88;;;22.85;;
70150;SDS011;57517;43.562;19.540;2023-03-04T14:24:55;29.63;;;21.23;;
70150;SDS011;57517;43.562;19.540;2023-03-04T14:27:23;79.05;;;46.50;;
70150;SDS011;57517;43.562;19.540;2023-03-04T14:29:55;194.90;;;118.90;;
70150;SDS011;57517;43.562;19.540;2023-03-04T14:32:22;161.07;;;94.72;;
70150;SDS011;57517;43.562;19.540;2023-03-04T14:34:49;269.25;;;167.68;;
70150;SDS011;57517;43.562;19.540;2023-03-04T14:37:18;385.92;;;245.20;;
70150;SDS011;57517;43.562;19.540;2023-03-04T14:39:47;313.30;;;213.30;;
70150;SDS011;57517;43.562;19.540;2023-03-04T14:42:18;136.15;;;93.60;;
70150;SDS011;57517;43.562;19.540;2023-03-04T14:44:47;116.15;;;82.80;;
70150;SDS011;57517;43.562;19.540;2023-03-04T14:47:16;93.03;;;68.72;;
70150;SDS011;57517;43.562;19.540;2023-03-04T14:49:48;114.28;;;81.20;;
70150;SDS011;57517;43.562;19.540;2023-03-04T14:52:31;98.22;;;74.10;;
70150;SDS011;57517;43.562;19.540;2023-03-04T14:55:24;45.13;;;32.03;;
70150;SDS011;57517;43.562;19.540;2023-03-04T14:57:52;68.45;;;47.90;;
70150;SDS011;57517;43.562;19.540;2023-03-04T15:00:29;109.32;;;81.30;;
70150;SDS011;57517;43.562;19.540;2023-03-04T15:03:01;166.23;;;117.82;;
70150;SDS011;57517;43.562;19.540;2023-03-04T15:05:32;99.28;;;73.05;;
70150;SDS011;57517;43.562;19.540;2023-03-04T15:08:21;192.43;;;139.38;;
70150;SDS011;57517;43.562;19.540;2023-03-04T15:10:54;194.43;;;144.70;;
70150;SDS011;57517;43.562;19.540;2023-03-04T15:13:40;73.35;;;52.70;;
70150;SDS011;57517;43.562;19.540;2023-03-04T15:16:13;69.00;;;56.30;;
70150;SDS011;57517;43.562;19.540;2023-03-04T15:23:57;56.53;;;40.13;;
70150;SDS011;57517;43.562;19.540;2023-03-04T15:26:22;80.45;;;66.00;;
70150;SDS011;57517;43.562;19.540;2023-03-04T15:28:48;79.82;;;59.05;;
70150;SDS011;57517;43.562;19.540;2023-03-04T15:31:18;128.82;;;95.10;;
70150;SDS011;57517;43.562;19.540;2023-03-04T15:33:45;123.57;;;92.43;;
70150;SDS011;57517;43.562;19.540;2023-03-04T15:36:13;67.00;;;52.97;;
70150;SDS011;57517;43.562;19.540;2023-03-04T15:38:41;43.42;;;31.90;;
70150;SDS011;57517;43.562;19.540;2023-03-04T15:41:20;46.22;;;36.20;;
70150;SDS011;57517;43.562;19.540;2023-03-04T15:43:48;58.92;;;43.88;;
70150;SDS011;57517;43.562;19.540;2023-03-04T15:46:14;59.70;;;45.22;;
70150;SDS011;57517;43.562;19.540;2023-03-04T15:48:40;68.13;;;50.72;;
70150;SDS011;57517;43.562;19.540;2023-03-04T15:51:09;38.00;;;27.65;;
70150;SDS011;57517;43.562;19.540;2023-03-04T15:53:59;32.10;;;23.10;;
70150;SDS011;57517;43.562;19.540;2023-03-04T15:56:32;65.50;;;43.65;;
70150;SDS011;57517;43.562;19.540;2023-03-04T15:59:03;45.35;;;29.20;;
70150;SDS011;57517;43.562;19.540;2023-03-04T16:01:34;82.03;;;53.38;;
70150;SDS011;57517;43.562;19.540;2023-03-04T16:03:59;76.15;;;51.80;;
70150;SDS011;57517;43.562;19.540;2023-03-04T16:06:26;62.45;;;49.13;;
70150;SDS011;57517;43.562;19.540;2023-03-04T16:08:54;72.20;;;50.33;;
70150;SDS011;57517;43.562;19.540;2023-03-04T16:11:22;76.95;;;63.15;;
70150;SDS011;57517;43.562;19.540;2023-03-04T16:13:50;72.00;;;52.78;;
70150;SDS011;57517;43.562;19.540;2023-03-04T16:16:16;61.58;;;42.45;;
70150;SDS011;57517;43.562;19.540;2023-03-04T16:18:42;51.28;;;38.17;;
70150;SDS011;57517;43.562;19.540;2023-03-04T16:21:11;48.85;;;34.28;;
70150;SDS011;57517;43.562;19.540;2023-03-04T16:23:40;45.90;;;30.20;;
70150;SDS011;57517;43.562;19.540;2023-03-04T16:26:14;33.47;;;22.30;;
70150;SDS011;57517;43.562;19.540;2023-03-04T16:31:09;32.63;;;20.75;;
70150;SDS011;57517;43.562;19.540;2023-03-04T16:33:36;32.75;;;21.65;;
70150;SDS011;57517;43.562;19.540;2023-03-04T16:36:02;29.13;;;22.02;;
70150;SDS011;57517;43.562;19.540;2023-03-04T16:38:34;37.72;;;24.52;;
70150;SDS011;57517;43.562;19.540;2023-03-04T16:41:00;42.55;;;31.42;;
70150;SDS011;57517;43.562;19.540;2023-03-04T16:43:28;47.08;;;32.97;;